createdAt,value
2022-08-07T00:06:56.217Z,21.16
2022-08-07T00:17:07.247Z,21.39
2022-08-07T00:27:09.286Z,18.89
2022-08-07T00:37:13.159Z,20.08
2022-08-07T00:48:08.718Z,20.32
2022-08-07T00:57:55.399Z,17.83
2022-08-07T01:07:58.265Z,18.98
2022-08-07T01:18:00.426Z,19.32
2022-08-07T01:28:04.181Z,16.75
2022-08-07T01:38:07.571Z,18.25
2022-08-07T01:48:19.745Z,20.62
2022-08-07T01:58:45.204Z,19.52
2022-08-07T02:08:49.755Z,16.64
2022-08-07T02:18:58.780Z,17.79
2022-08-07T02:29:03.207Z,20.15
2022-08-07T02:39:09.499Z,18.95
2022-08-07T02:49:28.940Z,16.02
2022-08-07T02:59:55.266Z,17.21
2022-08-07T03:10:07.504Z,19.60
2022-08-07T03:20:11.710Z,18.52
2022-08-07T03:30:19.199Z,15.69
2022-08-07T03:40:31.221Z,17.04
2022-08-07T03:50:56.024Z,19.58
2022-08-07T04:01:05.110Z,18.58
2022-08-07T04:12:21.488Z,16.27
2022-08-07T04:21:34.347Z,19.13
2022-08-07T04:32:03.262Z,20.82
2022-08-07T04:42:04.128Z,19.20
2022-08-07T04:52:19.432Z,18.48
2022-08-07T05:02:45.946Z,21.82
2022-08-07T05:14:45.704Z,28.08
2022-08-07T05:23:50.363Z,31.69
2022-08-07T05:34:04.360Z,35.30
2022-08-07T05:44:12.519Z,38.30
2022-08-07T05:54:30.708Z,40.85
2022-08-07T06:04:42.150Z,43.02
2022-08-07T06:14:55.217Z,44.99
2022-08-07T06:25:06.195Z,46.70
2022-08-07T06:35:17.956Z,48.06
2022-08-07T06:45:23.809Z,49.48
2022-08-07T06:55:53.432Z,50.69
2022-08-07T07:06:04.027Z,51.53
2022-08-07T07:16:18.016Z,52.19
2022-08-07T07:26:34.780Z,52.77
2022-08-07T07:36:40.897Z,53.43
2022-08-07T07:46:55.244Z,54.40
2022-08-07T07:57:03.703Z,55.26
2022-08-07T08:07:07.558Z,56.05
2022-08-07T08:17:57.895Z,56.85
2022-08-07T08:27:37.703Z,57.00
2022-08-07T08:38:00.379Z,57.32
2022-08-07T08:48:16.611Z,56.99
2022-08-07T08:58:54.488Z,57.44
2022-08-07T09:09:23.604Z,59.05
2022-08-07T09:19:56.817Z,60.15
2022-08-07T09:30:09.261Z,61.54
2022-08-07T09:40:36.208Z,62.65
2022-08-07T09:51:00.705Z,63.24
2022-08-07T10:01:51.820Z,64.04
2022-08-07T10:12:30.766Z,64.38
2022-08-07T10:22:38.754Z,62.56
2022-08-07T10:33:09.635Z,59.64
2022-08-07T10:44:07.586Z,55.16
2022-08-07T10:54:27.079Z,44.78
2022-08-07T11:05:08.619Z,37.10
2022-08-07T11:15:18.698Z,31.70
2022-08-07T11:25:27.708Z,28.38
2022-08-07T11:35:59.473Z,26.22
2022-08-07T11:46:36.781Z,24.93
2022-08-07T11:57:58.014Z,24.11
2022-08-07T12:08:06.973Z,23.60
2022-08-07T12:18:37.182Z,23.28
2022-08-07T12:29:20.390Z,23.09
2022-08-07T12:39:50.354Z,23.10
2022-08-07T12:50:38.352Z,23.20
2022-08-07T13:00:50.867Z,23.03
2022-08-07T13:11:24.994Z,22.77
2022-08-07T13:21:57.517Z,22.55
2022-08-07T13:32:31.197Z,22.45
2022-08-07T13:42:28.381Z,22.36
2022-08-07T13:52:40.759Z,22.18
2022-08-07T14:02:50.973Z,22.04
2022-08-07T14:13:02.957Z,21.94
2022-08-07T14:24:00.200Z,21.83
2022-08-07T14:33:59.571Z,21.74
2022-08-07T14:44:10.090Z,21.66
2022-08-07T15:25:39.712Z,21.40
2022-08-07T15:36:02.667Z,21.29
2022-08-07T15:46:38.330Z,21.22
2022-08-07T15:56:43.018Z,21.13
2022-08-07T16:06:56.173Z,21.06
2022-08-07T16:18:02.394Z,21.03
2022-08-07T16:28:00.023Z,21.00
2022-08-07T16:38:09.744Z,20.82
2022-08-07T16:49:03.964Z,20.59
2022-08-07T16:59:51.286Z,20.33
2022-08-07T17:10:32.702Z,20.10
2022-08-07T17:20:38.360Z,19.84
2022-08-07T17:31:16.090Z,19.55
2022-08-07T17:42:03.720Z,19.18
2022-08-07T17:52:19.631Z,18.71
2022-08-07T18:02:36.815Z,18.24
2022-08-07T18:13:09.696Z,17.77
2022-08-07T18:23:42.400Z,17.33
2022-08-07T18:33:57.460Z,16.92
2022-08-07T18:44:08.878Z,19.12
2022-08-07T18:54:27.750Z,21.86
2022-08-07T19:04:57.560Z,21.09
2022-08-07T19:16:02.479Z,18.56
2022-08-07T19:26:23.883Z,17.13
2022-08-07T19:36:04.551Z,18.81
2022-08-07T19:46:10.673Z,21.46
2022-08-07T19:57:51.950Z,20.55
2022-08-07T20:06:36.590Z,17.85
2022-08-07T20:16:54.341Z,16.37
2022-08-07T20:27:02.795Z,17.95
2022-08-07T20:37:08.590Z,20.68
2022-08-07T20:47:14.839Z,19.86
2022-08-07T20:57:21.290Z,17.17
2022-08-07T21:07:27.113Z,15.68
2022-08-07T21:18:02.673Z,17.42
2022-08-07T21:28:06.242Z,20.06
2022-08-07T21:38:27.665Z,19.11
2022-08-07T21:48:42.614Z,16.40
2022-08-07T21:59:14.182Z,14.98
2022-08-07T22:09:25.792Z,16.67
2022-08-07T22:20:07.108Z,19.45
2022-08-07T22:30:19.044Z,18.46
2022-08-07T22:40:29.906Z,15.78
2022-08-07T22:51:20.199Z,14.32
2022-08-07T23:01:50.392Z,16.24
2022-08-07T23:11:59.631Z,18.92
2022-08-07T23:22:16.153Z,18.05
2022-08-07T23:34:24.134Z,15.33
2022-08-07T23:43:24.877Z,13.85
2022-08-07T23:53:51.879Z,15.86
